Time;durP1;ratioP1;P1;durP2;ratioP2;P2;SDS_P1;SDS_P2;PMS_P1;PMS_P2;Temp;Humidity;BMP_temperature;BMP_pressure;BME280_temperature;BME280_humidity;BME280_pressure;Samples;Min_cycle;Max_cycle;Signal;HPM_P1;HPM_P2
2022/07/28 00:01:41;;;;;;;3.13;1.13;;;14.10;99.90;;;;;;5052567;28;20045;-45
2022/07/28 00:04:07;;;;;;;3.45;1.27;;;14.10;99.90;;;;;;5050970;28;20072;-48
2022/07/28 00:06:33;;;;;;;3.40;1.48;;;14.20;99.90;;;;;;5051624;28;20504;-48
2022/07/28 00:08:59;;;;;;;2.55;1.20;;;14.10;99.90;;;;;;5051071;28;20051;-44
2022/07/28 00:11:24;;;;;;;4.13;1.35;;;14.00;99.90;;;;;;5049940;28;20029;-48
2022/07/28 00:13:50;;;;;;;4.00;1.80;;;13.80;99.90;;;;;;5047562;28;20431;-46
2022/07/28 00:16:16;;;;;;;3.53;1.60;;;13.80;99.90;;;;;;5044320;28;20404;-47
2022/07/28 00:18:42;;;;;;;3.85;1.60;;;13.80;99.90;;;;;;5042922;28;20040;-46
2022/07/28 00:21:08;;;;;;;4.00;1.77;;;13.90;99.90;;;;;;5047875;28;20411;-47
2022/07/28 00:23:33;;;;;;;3.88;1.42;;;14.10;99.90;;;;;;5045046;28;20616;-51
2022/07/28 00:25:59;;;;;;;3.30;1.30;;;14.10;99.90;;;;;;5042307;28;20041;-46
2022/07/28 00:28:25;;;;;;;4.25;1.75;;;14.00;99.90;;;;;;5047425;28;20120;-43
2022/07/28 00:30:50;;;;;;;5.30;1.80;;;13.80;99.90;;;;;;5046644;28;20045;-47
2022/07/28 00:33:17;;;;;;;3.70;1.73;;;13.70;99.90;;;;;;5058295;28;20483;-46
2022/07/28 00:35:42;;;;;;;4.28;2.40;;;13.70;99.90;;;;;;5042976;28;20099;-45
2022/07/28 00:38:08;;;;;;;5.80;1.63;;;13.70;99.90;;;;;;5049156;28;20037;-45
2022/07/28 00:43:18;;;;;;;5.85;1.60;;;13.60;99.90;;;;;;5051518;28;20139;-44
2022/07/28 00:45:44;;;;;;;4.10;1.50;;;13.60;99.90;;;;;;5051410;28;20087;-47
2022/07/28 00:48:09;;;;;;;3.67;1.77;;;13.80;99.90;;;;;;5051912;28;20048;-46
2022/07/28 00:50:38;;;;;;;4.75;2.00;;;13.70;99.90;;;;;;5051121;28;20125;-45
2022/07/28 00:53:05;;;;;;;4.35;1.33;;;13.60;99.90;;;;;;5052046;28;20049;-44
2022/07/28 00:55:31;;;;;;;5.25;1.50;;;13.50;99.90;;;;;;5050825;28;20037;-46
2022/07/28 00:57:56;;;;;;;6.85;1.55;;;13.60;99.90;;;;;;5048860;28;20045;-47
2022/07/28 01:00:22;;;;;;;3.97;1.35;;;13.50;99.90;;;;;;5050854;28;20029;-47
2022/07/28 01:02:48;;;;;;;4.85;1.50;;;13.50;99.90;;;;;;5050167;28;20088;-47
2022/07/28 01:05:14;;;;;;;3.40;1.30;;;13.50;99.90;;;;;;5049431;28;20033;-47
2022/07/28 01:08:02;;;;;;;3.45;1.00;;;13.50;99.90;;;;;;5049126;28;20121;-46
2022/07/28 01:11:13;;;;;;;5.43;1.40;;;13.50;99.90;;;;;;5050823;28;20094;-44
2022/07/28 01:13:50;;;;;;;3.05;1.20;;;13.60;99.90;;;;;;5045268;28;20049;-47
2022/07/28 01:16:15;;;;;;;3.45;1.10;;;13.60;99.90;;;;;;5050826;28;20041;-46
2022/07/28 01:18:53;;;;;;;4.28;1.40;;;13.70;99.90;;;;;;5050231;28;20044;-47
2022/07/28 01:21:25;;;;;;;4.05;1.25;;;13.70;99.90;;;;;;5050802;28;20041;-46
2022/07/28 01:24:00;;;;;;;4.97;1.23;;;13.60;99.90;;;;;;5050489;28;20056;-45
2022/07/28 01:26:52;;;;;;;5.13;1.30;;;13.70;99.90;;;;;;5051740;28;20123;-47
2022/07/28 01:29:39;;;;;;;4.90;1.23;;;13.70;99.90;;;;;;5051739;28;20663;-45
2022/07/28 01:32:11;;;;;;;5.20;1.45;;;13.60;99.90;;;;;;5051151;28;20121;-46
2022/07/28 01:34:49;;;;;;;3.22;1.27;;;13.60;99.90;;;;;;5047722;28;20111;-46
2022/07/28 01:37:19;;;;;;;4.63;1.60;;;13.60;99.90;;;;;;5050514;28;20037;-44
2022/07/28 01:39:46;;;;;;;4.57;1.75;;;13.60;99.90;;;;;;5048961;28;20045;-44
2022/07/28 01:42:13;;;;;;;7.00;1.98;;;13.50;99.90;;;;;;5050592;28;20040;-47
2022/07/28 01:44:45;;;;;;;4.53;2.00;;;13.60;99.90;;;;;;5049896;28;20519;-47
2022/07/28 01:47:11;;;;;;;3.85;2.10;;;13.60;99.90;;;;;;5050223;28;20119;-49
2022/07/28 01:49:38;;;;;;;4.10;1.95;;;13.60;99.90;;;;;;5050084;28;20171;-44
2022/07/28 01:52:07;;;;;;;5.72;2.20;;;13.60;99.90;;;;;;5049904;28;20051;-46
2022/07/28 01:54:36;;;;;;;4.85;2.13;;;13.50;99.90;;;;;;5048672;28;20095;-47
2022/07/28 01:57:04;;;;;;;4.40;2.30;;;13.40;99.90;;;;;;5049182;28;20122;-45
2022/07/28 01:59:31;;;;;;;6.57;2.30;;;13.30;99.90;;;;;;5050307;28;20044;-46
2022/07/28 02:01:59;;;;;;;4.95;2.17;;;13.30;99.90;;;;;;5050430;28;20503;-49
2022/07/28 02:04:27;;;;;;;5.03;2.25;;;13.20;99.90;;;;;;5048260;28;20041;-48
2022/07/28 02:06:55;;;;;;;4.88;2.17;;;13.20;99.90;;;;;;5050091;28;20048;-45
2022/07/28 02:09:22;;;;;;;5.60;2.38;;;13.20;99.90;;;;;;5050038;28;20045;-46
2022/07/28 02:11:52;;;;;;;5.60;2.22;;;13.30;99.90;;;;;;5049225;28;20381;-49
2022/07/28 02:14:23;;;;;;;7.60;2.30;;;13.40;99.90;;;;;;5048454;28;20040;-46
2022/07/28 02:16:56;;;;;;;5.82;2.35;;;13.30;99.90;;;;;;5053452;28;20033;-46
2022/07/28 02:19:23;;;;;;;4.18;1.92;;;13.20;99.90;;;;;;5053676;28;20495;-46
2022/07/28 02:21:50;;;;;;;4.93;2.40;;;13.10;99.90;;;;;;5053954;28;20037;-45
2022/07/28 02:24:22;;;;;;;5.55;2.65;;;13.00;99.90;;;;;;5053548;28;20043;-44
2022/07/28 02:26:57;;;;;;;6.22;2.72;;;13.00;99.90;;;;;;5052394;28;20057;-44
2022/07/28 02:29:24;;;;;;;5.32;2.40;;;12.90;99.90;;;;;;5053921;28;20361;-45
2022/07/28 02:32:19;;;;;;;5.93;2.42;;;12.80;99.90;;;;;;5053480;28;20068;-48
2022/07/28 02:34:48;;;;;;;5.82;2.40;;;12.70;99.90;;;;;;5053097;28;20103;-44
2022/07/28 02:37:14;;;;;;;7.68;2.50;;;12.70;99.90;;;;;;5053505;28;20037;-46
2022/07/28 02:39:52;;;;;;;4.72;2.30;;;12.80;99.90;;;;;;5053217;28;20037;-46
2022/07/28 02:42:27;;;;;;;5.57;2.50;;;12.70;99.90;;;;;;5053916;28;20048;-47
2022/07/28 02:44:58;;;;;;;4.35;2.38;;;12.80;99.90;;;;;;5053096;28;20384;-45
2022/07/28 02:47:27;;;;;;;5.53;2.20;;;12.80;99.90;;;;;;5053627;28;20561;-44
2022/07/28 02:49:56;;;;;;;5.93;2.47;;;12.80;99.90;;;;;;5053364;28;20079;-44
2022/07/28 02:52:24;;;;;;;5.20;2.60;;;12.70;99.90;;;;;;5053408;28;20033;-45
2022/07/28 02:54:51;;;;;;;5.38;2.20;;;12.50;99.90;;;;;;5052691;28;20480;-45
2022/07/28 02:57:18;;;;;;;4.18;2.45;;;12.50;99.90;;;;;;5051620;28;20069;-45
2022/07/28 02:59:44;;;;;;;4.75;2.38;;;12.50;99.90;;;;;;5051690;28;20037;-44
2022/07/28 03:02:11;;;;;;;5.30;2.20;;;12.50;99.90;;;;;;5052979;28;20072;-47
2022/07/28 03:07:31;;;;;;;5.72;2.42;;;12.40;99.90;;;;;;5053061;28;20155;-46
2022/07/28 03:09:58;;;;;;;5.25;2.35;;;12.50;99.90;;;;;;5053210;28;20392;-45
2022/07/28 03:12:25;;;;;;;3.97;2.08;;;12.50;99.90;;;;;;5052946;28;20040;-46
2022/07/28 03:14:51;;;;;;;5.63;2.30;;;12.50;99.90;;;;;;5053172;28;20140;-47
2022/07/28 03:17:18;;;;;;;4.18;2.35;;;12.50;99.90;;;;;;5051421;28;20052;-46
2022/07/28 03:19:44;;;;;;;4.63;2.50;;;12.40;99.90;;;;;;5052569;28;20041;-46
2022/07/28 03:22:10;;;;;;;5.72;2.47;;;12.40;99.90;;;;;;5052488;28;20067;-47
2022/07/28 03:24:39;;;;;;;6.82;2.40;;;12.40;99.90;;;;;;5052783;28;20041;-48
2022/07/28 03:27:11;;;;;;;3.60;2.00;;;12.40;99.90;;;;;;5052084;28;20045;-46
2022/07/28 03:29:37;;;;;;;6.20;2.38;;;12.40;99.90;;;;;;5052485;28;20235;-45
2022/07/28 03:32:03;;;;;;;3.83;1.98;;;12.40;99.90;;;;;;5052758;28;20066;-47
2022/07/28 03:34:29;;;;;;;3.85;2.35;;;12.30;99.90;;;;;;5051803;28;20075;-48
2022/07/28 03:37:17;;;;;;;5.18;2.40;;;12.20;99.90;;;;;;5052381;28;20064;-48
2022/07/28 03:39:49;;;;;;;4.20;2.35;;;12.20;99.90;;;;;;5050993;28;20123;-51
2022/07/28 03:42:19;;;;;;;5.60;2.47;;;12.30;99.90;;;;;;5051025;28;20033;-46
2022/07/28 03:44:47;;;;;;;4.38;2.20;;;12.20;99.90;;;;;;5051999;28;20060;-46
2022/07/28 03:47:13;;;;;;;5.68;2.95;;;12.10;99.90;;;;;;5051858;28;20445;-46
2022/07/28 03:49:39;;;;;;;4.38;3.13;;;12.00;99.90;;;;;;5052070;28;20507;-49
2022/07/28 03:52:05;;;;;;;6.60;3.63;;;11.90;99.90;;;;;;5052472;28;20069;-47
2022/07/28 03:54:31;;;;;;;6.38;3.55;;;11.90;99.90;;;;;;5051992;28;20044;-45
2022/07/28 03:56:56;;;;;;;5.93;3.50;;;12.00;99.90;;;;;;5052324;28;20047;-46
2022/07/28 03:59:23;;;;;;;6.70;4.25;;;11.90;99.90;;;;;;5052141;28;20087;-47
2022/07/28 04:01:49;;;;;;;8.15;4.70;;;12.00;99.90;;;;;;5051945;28;20037;-46
2022/07/28 04:04:14;;;;;;;8.57;5.03;;;12.00;99.90;;;;;;5051753;28;20075;-44
2022/07/28 04:06:40;;;;;;;8.32;4.60;;;12.10;99.90;;;;;;5052036;28;20124;-44
2022/07/28 04:09:06;;;;;;;8.90;4.18;;;12.00;99.90;;;;;;5050705;28;20492;-45
2022/07/28 04:11:31;;;;;;;7.78;4.20;;;11.90;99.90;;;;;;5051984;28;20069;-47
2022/07/28 04:13:57;;;;;;;7.40;3.92;;;12.10;99.90;;;;;;5051432;28;20391;-45
2022/07/28 04:16:23;;;;;;;5.82;3.72;;;12.10;99.90;;;;;;5050404;28;20036;-47
2022/07/28 04:18:49;;;;;;;8.25;4.03;;;12.10;99.90;;;;;;5051558;28;20033;-46
2022/07/28 04:21:15;;;;;;;6.55;3.90;;;12.10;99.90;;;;;;5051672;28;20037;-45
2022/07/28 04:23:40;;;;;;;5.30;3.78;;;12.00;99.90;;;;;;5051337;28;20064;-44
2022/07/28 04:26:06;;;;;;;6.43;3.17;;;12.10;99.90;;;;;;5049873;28;20041;-48
2022/07/28 04:28:32;;;;;;;8.35;3.83;;;12.20;99.90;;;;;;5050798;28;20392;-48
2022/07/28 04:30:57;;;;;;;7.82;4.43;;;12.10;99.90;;;;;;5051108;28;20025;-50
2022/07/28 04:33:23;;;;;;;7.97;4.18;;;12.00;99.90;;;;;;5050344;28;20086;-46
2022/07/28 04:35:51;;;;;;;7.97;4.00;;;12.20;99.90;;;;;;5049720;28;20041;-47
2022/07/28 04:38:19;;;;;;;7.53;3.63;;;12.10;99.90;;;;;;5050378;28;20107;-46
2022/07/28 04:40:46;;;;;;;5.88;3.30;;;12.20;99.90;;;;;;5051000;28;20373;-45
2022/07/28 04:43:12;;;;;;;5.85;3.70;;;12.10;99.90;;;;;;5051008;28;20036;-49
2022/07/28 04:45:38;;;;;;;8.60;4.03;;;12.30;99.90;;;;;;5049741;28;20131;-46
2022/07/28 04:48:04;;;;;;;6.97;3.78;;;12.30;99.90;;;;;;5049955;28;20063;-48
2022/07/28 04:50:31;;;;;;;9.10;3.97;;;12.40;99.90;;;;;;5051288;28;20043;-46
2022/07/28 04:52:57;;;;;;;7.63;3.85;;;12.40;99.90;;;;;;5051026;28;20037;-46
2022/07/28 04:55:24;;;;;;;7.93;4.15;;;12.50;99.90;;;;;;5051090;28;20136;-44
2022/07/28 04:57:49;;;;;;;5.47;3.40;;;12.60;99.90;;;;;;5050813;28;20080;-48
2022/07/28 05:00:15;;;;;;;6.85;3.45;;;12.70;99.90;;;;;;5050577;28;20061;-45
2022/07/28 05:02:43;;;;;;;6.30;3.28;;;12.80;99.90;;;;;;5051042;28;20380;-47
2022/07/28 05:05:09;;;;;;;5.75;3.40;;;12.90;99.90;;;;;;5050674;28;20040;-46
2022/07/28 05:07:36;;;;;;;7.05;3.22;;;12.90;99.90;;;;;;5051142;28;20108;-45
2022/07/28 05:10:03;;;;;;;5.75;3.28;;;13.10;99.90;;;;;;5050670;28;20040;-47
2022/07/28 05:12:29;;;;;;;7.15;3.10;;;13.20;99.90;;;;;;5049627;28;20488;-47
2022/07/28 05:14:54;;;;;;;5.93;2.88;;;13.30;99.90;;;;;;5050593;28;20123;-47
2022/07/28 05:17:20;;;;;;;5.38;2.40;;;13.40;99.90;;;;;;5050509;28;20033;-48
2022/07/28 05:19:46;;;;;;;5.28;2.20;;;13.50;99.90;;;;;;5050581;28;20033;-48
2022/07/28 05:22:12;;;;;;;6.18;2.35;;;13.50;99.90;;;;;;5050820;28;20716;-49
2022/07/28 05:24:38;;;;;;;8.70;2.17;;;13.70;99.90;;;;;;5048237;28;20090;-46
2022/07/28 05:27:04;;;;;;;6.53;2.13;;;13.80;99.90;;;;;;5050594;28;20629;-44
2022/07/28 05:29:29;;;;;;;4.13;1.98;;;13.90;99.90;;;;;;5048896;28;20033;-43
2022/07/28 05:31:55;;;;;;;6.32;2.25;;;14.00;99.90;;;;;;5050807;28;20051;-45
2022/07/28 05:34:21;;;;;;;6.40;1.90;;;14.00;99.90;;;;;;5048818;28;20048;-45
2022/07/28 05:36:46;;;;;;;5.03;1.98;;;14.10;99.90;;;;;;5050139;28;20037;-48
2022/07/28 05:39:12;;;;;;;4.75;1.83;;;14.20;99.90;;;;;;5051658;28;20378;-46
2022/07/28 05:41:37;;;;;;;5.18;1.60;;;14.30;99.90;;;;;;5049827;28;20060;-47
2022/07/28 05:44:03;;;;;;;3.67;1.63;;;14.30;99.90;;;;;;5048995;28;20420;-46
2022/07/28 05:46:29;;;;;;;4.53;1.73;;;14.40;99.90;;;;;;5050106;28;20122;-46
2022/07/28 05:48:55;;;;;;;6.53;1.70;;;14.50;99.90;;;;;;5050612;28;20036;-48
2022/07/28 05:51:20;;;;;;;6.00;2.10;;;14.40;99.90;;;;;;5054327;28;20033;-46
2022/07/28 05:53:46;;;;;;;4.15;1.83;;;14.50;99.90;;;;;;5054335;28;20064;-48
2022/07/28 05:56:12;;;;;;;3.78;2.25;;;14.40;99.90;;;;;;5054483;28;20041;-46
2022/07/28 05:58:37;;;;;;;5.22;2.35;;;14.50;99.90;;;;;;5055755;28;20045;-45
2022/07/28 06:01:03;;;;;;;6.15;2.75;;;14.50;99.90;;;;;;5054854;28;20384;-46
2022/07/28 06:03:31;;;;;;;6.15;2.80;;;14.50;99.90;;;;;;5054462;28;20131;-46
2022/07/28 06:05:57;;;;;;;6.03;2.60;;;14.50;99.90;;;;;;5056627;28;20491;-51
2022/07/28 06:08:26;;;;;;;5.35;2.15;;;14.50;99.90;;;;;;5055851;28;20048;-44
2022/07/28 06:10:58;;;;;;;4.10;1.92;;;14.50;99.90;;;;;;5054884;28;20082;-47
2022/07/28 06:13:24;;;;;;;7.78;2.30;;;14.50;99.90;;;;;;5053881;28;20124;-46
2022/07/28 06:15:51;;;;;;;5.60;2.25;;;14.50;99.90;;;;;;5053618;28;20116;-46
2022/07/28 06:18:18;;;;;;;7.40;2.08;;;14.50;99.90;;;;;;5054199;28;20051;-46
2022/07/28 06:20:44;;;;;;;4.68;1.63;;;14.40;99.90;;;;;;5054178;28;20120;-43
2022/07/28 06:23:10;;;;;;;8.02;2.40;;;14.40;99.90;;;;;;5053685;28;20049;-49
2022/07/28 06:25:36;;;;;;;4.85;2.00;;;14.40;99.90;;;;;;5052452;28;20041;-49
2022/07/28 06:28:02;;;;;;;4.15;1.80;;;14.40;99.90;;;;;;5035426;28;20059;-49
2022/07/28 06:30:28;;;;;;;3.75;2.13;;;14.40;99.90;;;;;;5053630;28;20186;-48
2022/07/28 06:32:54;;;;;;;4.10;2.20;;;14.40;99.90;;;;;;5053082;28;20049;-47
2022/07/28 06:35:20;;;;;;;4.57;1.98;;;14.50;99.90;;;;;;5053319;28;20039;-46
2022/07/28 06:37:47;;;;;;;6.95;2.72;;;14.50;99.90;;;;;;5053420;28;20415;-46
2022/07/28 06:40:14;;;;;;;4.68;2.00;;;14.50;99.90;;;;;;5053665;28;20033;-45
2022/07/28 06:42:41;;;;;;;3.83;1.83;;;14.60;99.90;;;;;;5055388;28;20403;-46
2022/07/28 06:45:08;;;;;;;4.88;2.15;;;14.50;99.90;;;;;;5054112;28;20488;-45
2022/07/28 06:47:34;;;;;;;6.18;2.10;;;14.60;99.90;;;;;;5053054;28;20052;-46
2022/07/28 06:50:00;;;;;;;5.43;2.13;;;14.50;99.90;;;;;;5051700;28;20044;-48
2022/07/28 06:52:26;;;;;;;5.95;2.20;;;14.60;99.90;;;;;;5052146;28;20040;-48
2022/07/28 06:54:52;;;;;;;4.50;1.90;;;14.60;99.90;;;;;;5057467;28;20037;-48
2022/07/28 06:57:19;;;;;;;5.72;1.95;;;14.70;99.90;;;;;;5051813;28;20051;-48
2022/07/28 06:59:45;;;;;;;5.32;1.95;;;14.70;99.90;;;;;;5051716;28;20102;-47
2022/07/28 07:02:15;;;;;;;4.47;2.15;;;14.90;99.90;;;;;;5052177;28;20041;-47
2022/07/28 07:04:42;;;;;;;4.22;1.55;;;14.90;99.90;;;;;;5034787;28;20041;-47
2022/07/28 07:07:07;;;;;;;5.28;1.77;;;14.90;99.90;;;;;;5052918;28;20037;-48
2022/07/28 07:09:33;;;;;;;4.78;1.88;;;15.00;99.90;;;;;;5052660;28;20041;-48
2022/07/28 07:11:59;;;;;;;6.20;2.25;;;15.10;99.90;;;;;;5052550;28;20036;-48
2022/07/28 07:14:24;;;;;;;5.88;1.48;;;15.10;99.90;;;;;;5051622;28;20067;-46
2022/07/28 07:16:50;;;;;;;7.57;1.77;;;15.20;99.90;;;;;;5052689;28;20036;-45
2022/07/28 07:19:20;;;;;;;4.65;1.67;;;15.20;99.90;;;;;;5052667;28;20064;-46
2022/07/28 07:21:46;;;;;;;4.93;1.38;;;15.40;99.90;;;;;;5052751;28;20091;-45
2022/07/28 07:24:12;;;;;;;4.65;1.40;;;15.40;99.90;;;;;;5052624;28;20039;-44
2022/07/28 07:26:38;;;;;;;6.20;1.63;;;15.50;99.90;;;;;;5053470;28;20045;-46
2022/07/28 07:29:07;;;;;;;4.43;1.30;;;15.50;99.90;;;;;;5055062;28;20037;-47
2022/07/28 07:31:37;;;;;;;6.38;1.80;;;15.60;99.90;;;;;;5053617;28;20040;-45
2022/07/28 07:34:04;;;;;;;6.38;1.58;;;15.70;99.90;;;;;;5054449;28;20101;-48
2022/07/28 07:36:30;;;;;;;3.42;1.40;;;15.70;99.90;;;;;;5053619;28;20041;-46
2022/07/28 07:38:56;;;;;;;4.20;1.15;;;15.90;99.90;;;;;;5053204;28;20072;-46
2022/07/28 07:41:22;;;;;;;3.85;1.10;;;16.00;99.90;;;;;;5052887;28;20072;-44
2022/07/28 07:43:48;;;;;;;3.45;1.05;;;16.00;99.90;;;;;;5052483;28;20060;-48
2022/07/28 07:46:14;;;;;;;5.65;0.90;;;16.10;99.90;;;;;;5051347;28;20045;-44
2022/07/28 07:48:40;;;;;;;3.50;1.02;;;16.30;99.90;;;;;;5052301;28;20534;-48
2022/07/28 07:51:07;;;;;;;3.00;1.13;;;16.30;99.90;;;;;;5050863;28;20037;-44
2022/07/28 07:53:32;;;;;;;3.58;0.95;;;16.40;99.90;;;;;;5054192;28;20032;-45
2022/07/28 07:55:58;;;;;;;4.03;1.00;;;16.40;99.90;;;;;;5051383;28;20480;-44
2022/07/28 07:58:24;;;;;;;3.55;0.90;;;16.50;99.90;;;;;;5052480;28;20044;-47
2022/07/28 08:00:49;;;;;;;3.83;1.00;;;16.50;99.90;;;;;;5050915;28;20071;-47
2022/07/28 08:03:15;;;;;;;3.70;1.15;;;16.60;99.90;;;;;;5051788;28;20037;-50
2022/07/28 08:05:41;;;;;;;2.92;1.10;;;16.70;99.90;;;;;;5051478;28;20048;-46
2022/07/28 08:08:08;;;;;;;4.20;1.17;;;16.80;99.90;;;;;;5051820;28;20178;-51
2022/07/28 08:10:35;;;;;;;2.40;0.82;;;16.80;99.90;;;;;;5048577;28;20033;-47
2022/07/28 08:13:02;;;;;;;4.47;0.90;;;16.90;99.90;;;;;;5050333;28;20037;-47
2022/07/28 08:15:28;;;;;;;2.78;0.75;;;16.90;99.90;;;;;;5051145;28;20044;-47
2022/07/28 08:17:53;;;;;;;3.35;0.85;;;17.00;99.90;;;;;;5050977;28;20033;-47
2022/07/28 08:20:19;;;;;;;3.13;0.90;;;17.00;99.90;;;;;;5050389;28;20037;-47
2022/07/28 08:22:53;;;;;;;5.78;1.13;;;17.20;99.90;;;;;;5050353;28;20037;-48
2022/07/28 08:25:19;;;;;;;;;;;17.30;99.90;;;;;;5050161;28;20048;-48
2022/07/28 08:27:45;;;;;;;2.97;0.80;;;17.40;99.90;;;;;;5052934;28;19924;-46
2022/07/28 08:30:13;;;;;;;2.60;0.90;;;17.40;99.90;;;;;;5047984;28;20483;-50
2022/07/28 08:32:40;;;;;;;1.65;0.70;;;17.60;99.90;;;;;;5048068;28;20032;-45
2022/07/28 08:35:06;;;;;;;6.03;0.60;;;17.60;99.90;;;;;;5049502;28;20037;-45
2022/07/28 08:37:32;;;;;;;3.30;0.70;;;17.60;99.90;;;;;;5050035;28;20112;-47
2022/07/28 08:39:58;;;;;;;3.63;0.93;;;17.70;99.90;;;;;;5049599;28;20128;-44
2022/07/28 08:42:34;;;;;;;2.75;0.80;;;17.80;99.90;;;;;;5048276;28;20051;-47
2022/07/28 08:45:05;;;;;;;3.15;1.08;;;17.90;99.90;;;;;;5042639;28;20394;-48
2022/07/28 08:47:33;;;;;;;2.83;0.70;;;17.90;99.90;;;;;;5039331;28;20049;-44
2022/07/28 08:50:00;;;;;;;3.17;0.63;;;18.00;99.90;;;;;;5044641;28;20085;-46
2022/07/28 08:52:32;;;;;;;4.18;0.88;;;17.90;99.60;;;;;;5041075;28;20502;-45
2022/07/28 08:55:02;;;;;;;2.00;0.70;;;18.00;99.90;;;;;;5042745;28;20123;-45
2022/07/28 08:57:34;;;;;;;2.15;0.70;;;18.00;99.60;;;;;;5042799;28;20506;-50
2022/07/28 09:00:00;;;;;;;3.63;0.55;;;18.00;99.70;;;;;;5040777;28;20102;-47
2022/07/28 09:02:28;;;;;;;5.50;1.02;;;18.00;99.90;;;;;;5044638;28;20102;-45
2022/07/28 09:04:54;;;;;;;3.50;1.00;;;18.20;99.40;;;;;;5040957;28;20484;-47
2022/07/28 09:07:22;;;;;;;2.25;0.65;;;18.20;99.50;;;;;;5041543;28;20069;-45
2022/07/28 09:09:49;;;;;;;3.88;0.70;;;18.20;99.60;;;;;;5042996;28;20096;-46
2022/07/28 09:12:14;;;;;;;2.58;0.85;;;18.30;99.60;;;;;;5041212;28;20045;-47
2022/07/28 09:14:40;;;;;;;4.30;1.05;;;18.50;99.20;;;;;;5041649;28;20060;-47
2022/07/28 09:17:06;;;;;;;6.72;1.10;;;18.70;98.70;;;;;;5041962;28;20376;-48
2022/07/28 09:19:32;;;;;;;3.97;0.88;;;19.10;99.20;;;;;;5042561;28;20052;-46
2022/07/28 09:21:59;;;;;;;3.05;0.65;;;19.40;98.60;;;;;;5042831;28;20033;-46
2022/07/28 09:24:34;;;;;;;3.78;0.80;;;19.60;98.00;;;;;;5041701;28;20047;-46
2022/07/28 09:27:03;;;;;;;2.53;0.80;;;19.80;96.30;;;;;;5038572;28;20112;-48
2022/07/28 09:29:28;;;;;;;2.05;0.63;;;19.80;97.20;;;;;;5042368;28;20048;-48
2022/07/28 09:31:54;;;;;;;2.72;0.65;;;19.60;97.20;;;;;;5040355;28;20041;-47
2022/07/28 09:34:20;;;;;;;11.20;1.00;;;19.20;97.10;;;;;;5043867;28;20038;-47
2022/07/28 09:36:46;;;;;;;7.82;0.75;;;19.10;96.40;;;;;;5041191;28;20641;-48
2022/07/28 09:39:30;;;;;;;3.20;0.80;;;19.30;96.80;;;;;;5039865;28;20033;-45
2022/07/28 09:41:56;;;;;;;5.28;0.85;;;19.60;97.20;;;;;;5044735;28;20033;-49
2022/07/28 09:44:23;;;;;;;2.75;0.80;;;19.70;97.00;;;;;;5041799;28;20060;-48
2022/07/28 09:46:50;;;;;;;4.72;0.90;;;19.60;97.00;;;;;;5038855;28;20429;-46
2022/07/28 09:49:16;;;;;;;4.20;0.80;;;20.20;97.10;;;;;;5042487;28;20081;-47
2022/07/28 09:51:57;;;;;;;6.22;0.88;;;20.50;96.00;;;;;;5041962;28;20037;-45
2022/07/28 09:54:23;;;;;;;2.17;0.70;;;20.20;95.80;;;;;;5040143;28;20487;-44
2022/07/28 09:56:48;;;;;;;3.38;0.80;;;20.00;95.80;;;;;;5042522;28;20034;-43
2022/07/28 09:59:16;;;;;;;2.90;0.70;;;19.80;96.30;;;;;;5024922;28;20447;-44
2022/07/28 10:01:52;;;;;;;2.83;0.60;;;19.70;96.90;;;;;;5043030;28;20045;-43
2022/07/28 10:04:38;;;;;;;7.38;1.08;;;19.70;96.10;;;;;;5043241;28;20095;-45
2022/07/28 10:07:08;;;;;;;3.67;0.85;;;19.50;95.40;;;;;;5042264;28;20369;-46
2022/07/28 10:09:35;;;;;;;3.05;0.70;;;19.50;95.10;;;;;;5042732;28;20049;-43
2022/07/28 10:12:24;;;;;;;5.70;0.85;;;19.50;95.30;;;;;;5040356;28;20115;-43
2022/07/28 10:14:52;;;;;;;5.00;0.70;;;19.80;96.00;;;;;;5042271;28;20036;-43
2022/07/28 10:17:21;;;;;;;3.53;0.70;;;20.00;96.10;;;;;;5041029;28;20435;-45
2022/07/28 10:19:47;;;;;;;4.00;0.68;;;20.10;95.80;;;;;;5038031;28;20603;-44
2022/07/28 10:22:16;;;;;;;1.77;0.55;;;20.30;95.40;;;;;;5043340;28;20071;-47
2022/07/28 10:24:45;;;;;;;2.13;0.88;;;20.60;94.40;;;;;;5040921;28;20037;-45
2022/07/28 10:27:11;;;;;;;2.42;0.60;;;20.50;94.40;;;;;;5040923;28;20124;-43
2022/07/28 10:29:38;;;;;;;3.90;0.70;;;20.20;95.10;;;;;;5042443;28;20052;-47
2022/07/28 10:32:05;;;;;;;3.30;0.70;;;20.10;94.50;;;;;;5044511;28;20068;-48
2022/07/28 10:34:43;;;;;;;2.30;0.52;;;20.10;94.30;;;;;;5045928;28;20554;-45
2022/07/28 10:37:16;;;;;;;2.30;0.60;;;20.00;94.30;;;;;;5049611;28;20414;-48
2022/07/28 10:39:47;;;;;;;3.38;0.80;;;20.10;94.70;;;;;;5047171;28;20060;-50
2022/07/28 10:42:13;;;;;;;3.55;0.70;;;20.30;94.90;;;;;;5052036;28;20049;-50
2022/07/28 10:44:44;;;;;;;3.63;0.80;;;20.70;95.10;;;;;;5046642;28;20065;-48
2022/07/28 10:47:11;;;;;;;2.05;0.88;;;20.60;94.70;;;;;;5042711;28;20049;-46
2022/07/28 10:49:38;;;;;;;2.20;0.60;;;20.50;94.60;;;;;;5048210;28;20065;-48
2022/07/28 10:52:05;;;;;;;4.20;0.70;;;20.40;94.10;;;;;;5046600;28;20131;-46
2022/07/28 10:54:35;;;;;;;1.92;0.60;;;20.50;94.70;;;;;;5044349;28;20098;-46
2022/07/28 10:57:04;;;;;;;3.20;0.52;;;20.60;94.30;;;;;;5041018;28;20041;-48
2022/07/28 10:59:57;;;;;;;2.72;0.60;;;20.60;94.00;;;;;;5047299;28;20120;-45
2022/07/28 11:02:43;;;;;;;3.65;1.02;;;20.90;94.50;;;;;;5049843;28;20044;-46
2022/07/28 11:05:28;;;;;;;5.22;1.13;;;20.90;93.30;;;;;;5048799;28;20361;-51
2022/07/28 11:07:55;;;;;;;1.98;0.63;;;21.10;94.40;;;;;;5049577;28;20040;-48
2022/07/28 11:10:21;;;;;;;1.98;0.57;;;21.30;92.90;;;;;;5049008;28;20041;-46
2022/07/28 11:12:55;;;;;;;2.40;1.13;;;21.40;92.70;;;;;;5048745;28;20060;-46
2022/07/28 11:15:31;;;;;;;3.92;0.80;;;21.40;92.60;;;;;;5049192;28;20064;-49
2022/07/28 11:17:58;;;;;;;2.35;0.70;;;21.50;93.30;;;;;;5048685;28;20079;-48
2022/07/28 11:20:49;;;;;;;2.83;0.65;;;21.40;93.00;;;;;;5050235;28;20040;-49
2022/07/28 11:23:47;;;;;;;1.45;0.57;;;21.30;92.10;;;;;;5049805;28;20047;-48
2022/07/28 11:26:22;;;;;;;2.67;0.88;;;21.20;91.60;;;;;;5047708;28;20036;-51
2022/07/28 11:29:02;;;;;;;2.40;0.55;;;21.70;92.90;;;;;;5048804;28;20258;-49
2022/07/28 11:31:43;;;;;;;1.83;0.50;;;21.70;91.90;;;;;;5049073;28;20048;-46
2022/07/28 11:34:09;;;;;;;1.60;0.70;;;22.00;91.60;;;;;;5048959;28;20048;-48
2022/07/28 11:37:09;;;;;;;1.92;0.50;;;22.00;91.40;;;;;;5049361;28;20464;-49
2022/07/28 11:39:35;;;;;;;1.75;0.50;;;22.10;91.40;;;;;;5026034;28;20045;-45
2022/07/28 11:42:24;;;;;;;5.20;0.60;;;22.40;91.20;;;;;;5046905;28;20045;-49
2022/07/28 11:44:50;;;;;;;2.85;0.70;;;22.30;91.40;;;;;;5049546;28;20049;-46
2022/07/28 11:47:17;;;;;;;2.60;0.90;;;22.30;91.70;;;;;;5049193;28;20052;-46
2022/07/28 11:50:10;;;;;;;2.60;0.65;;;22.20;90.80;;;;;;5050022;28;20052;-49
2022/07/28 11:52:36;;;;;;;1.77;0.60;;;22.30;89.60;;;;;;5049339;28;20041;-47
2022/07/28 11:55:03;;;;;;;4.10;0.70;;;22.50;90.10;;;;;;5049801;28;20044;-46
2022/07/28 11:57:37;;;;;;;3.47;0.60;;;22.70;91.20;;;;;;5049356;28;20090;-48
2022/07/28 12:00:04;;;;;;;2.80;0.65;;;22.80;89.50;;;;;;5049660;28;20132;-49
2022/07/28 12:02:32;;;;;;;2.38;0.50;;;23.00;90.30;;;;;;5047947;28;20496;-45
2022/07/28 12:05:04;;;;;;;2.63;0.70;;;23.40;90.30;;;;;;5049786;28;20099;-47
2022/07/28 12:07:39;;;;;;;2.13;0.50;;;23.40;88.10;;;;;;5034013;28;20063;-45
2022/07/28 12:10:29;;;;;;;2.15;0.50;;;23.20;87.00;;;;;;5051915;28;20037;-45
2022/07/28 12:12:58;;;;;;;2.00;0.40;;;23.10;88.10;;;;;;5051883;28;20041;-47
2022/07/28 12:15:24;;;;;;;2.35;0.55;;;23.10;89.40;;;;;;5051797;28;20099;-46
2022/07/28 12:17:50;;;;;;;2.17;0.50;;;23.30;86.90;;;;;;5051897;28;20510;-46
2022/07/28 12:20:17;;;;;;;1.75;0.50;;;23.70;86.80;;;;;;5051663;28;20037;-48
2022/07/28 12:23:02;;;;;;;3.10;0.57;;;23.70;88.90;;;;;;5050481;28;20032;-45
2022/07/28 12:25:28;;;;;;;3.40;0.70;;;23.80;87.80;;;;;;5051290;28;20056;-46
2022/07/28 12:27:54;;;;;;;2.70;0.70;;;24.10;86.40;;;;;;5051133;28;20504;-48
2022/07/28 12:30:25;;;;;;;3.25;0.73;;;24.30;86.30;;;;;;5051538;28;20033;-50
2022/07/28 12:32:52;;;;;;;2.08;0.47;;;24.50;86.10;;;;;;5032993;28;20404;-47
2022/07/28 12:35:19;;;;;;;2.90;0.50;;;24.60;85.90;;;;;;5050775;28;20040;-50
2022/07/28 12:37:49;;;;;;;3.15;0.70;;;24.40;86.30;;;;;;5050183;28;20044;-51
2022/07/28 12:40:19;;;;;;;2.33;0.60;;;24.60;85.60;;;;;;5051735;28;20392;-47
2022/07/28 12:42:45;;;;;;;2.30;0.60;;;24.40;83.00;;;;;;5050265;28;20037;-47
2022/07/28 12:45:12;;;;;;;4.35;0.70;;;24.10;83.50;;;;;;5049769;28;20492;-47
2022/07/28 12:47:38;;;;;;;4.03;0.57;;;23.70;84.60;;;;;;5049850;28;20690;-47
2022/07/28 12:50:18;;;;;;;2.70;0.60;;;24.20;84.10;;;;;;5049746;28;20056;-44
2022/07/28 12:53:01;;;;;;;2.80;0.70;;;24.60;84.00;;;;;;5051240;28;20112;-49
2022/07/28 12:55:29;;;;;;;1.45;0.50;;;25.10;84.10;;;;;;5048422;28;20037;-48
2022/07/28 12:57:55;;;;;;;2.47;0.60;;;24.70;84.60;;;;;;5050880;28;20106;-49
2022/07/28 13:00:26;;;;;;;2.85;0.70;;;24.10;83.40;;;;;;5050540;28;20476;-45
2022/07/28 13:02:55;;;;;;;2.75;0.57;;;24.30;83.30;;;;;;5050877;28;20043;-47